Time;durP1;ratioP1;P1;durP2;ratioP2;P2;SDS_P1;SDS_P2;PMS_P1;PMS_P2;Temp;Humidity;BMP_temperature;BMP_pressure;BME280_temperature;BME280_humidity;BME280_pressure;Samples;Min_cycle;Max_cycle;Signal;HPM_P1;HPM_P2
2023/07/12 00:02:23;;;;;;;4.75;1.90;;;19.30;1.00;;;;;;20821337;28;20054;-87
2023/07/12 00:12:44;;;;;;;5.20;1.65;;;19.20;1.00;;;;;;20818409;28;20484;-89
2023/07/12 00:23:06;;;;;;;5.43;2.65;;;19.20;1.00;;;;;;20820682;28;20057;-87
2023/07/12 00:33:27;;;;;;;5.97;3.15;;;19.10;1.00;;;;;;20883277;28;20308;-87
2023/07/12 00:43:57;;;;;;;8.02;4.88;;;19.10;1.00;;;;;;20801962;28;20113;-88
2023/07/12 00:54:22;;;;;;;10.48;4.38;;;19.00;1.00;;;;;;20816987;28;20030;-90
2023/07/12 01:04:48;;;;;;;7.38;3.47;;;19.00;1.00;;;;;;20818587;28;20095;-88
2023/07/12 01:15:11;;;;;;;8.65;2.92;;;18.90;1.00;;;;;;20803593;28;20045;-87
2023/07/12 01:25:42;;;;;;;7.30;3.30;;;18.70;1.00;;;;;;20763709;28;20053;-88
2023/07/12 01:36:04;;;;;;;8.77;3.30;;;18.20;40.00;;;;;;20750901;28;20049;-87
2023/07/12 01:46:26;;;;;;;6.97;2.85;;;17.90;97.40;;;;;;20759303;28;20041;-86
2023/07/12 01:56:47;;;;;;;9.80;2.72;;;17.60;99.90;;;;;;20761152;28;20397;-84
2023/07/12 02:07:08;;;;;;;12.18;3.05;;;17.50;99.90;;;;;;20757055;28;20038;-86
2023/07/12 02:17:29;;;;;;;9.48;2.88;;;17.30;99.90;;;;;;20778422;28;20048;-90
2023/07/12 02:27:51;;;;;;;10.45;3.13;;;17.20;99.90;;;;;;20817227;28;20095;-88
2023/07/12 02:38:12;;;;;;;10.27;3.63;;;17.20;99.90;;;;;;20811997;28;20661;-87
2023/07/12 02:48:35;;;;;;;8.63;3.65;;;17.20;99.90;;;;;;20816434;28;20041;-87
2023/07/12 02:58:56;;;;;;;9.02;3.00;;;17.20;99.90;;;;;;20800722;28;20037;-89
2023/07/12 03:09:17;;;;;;;9.43;3.00;;;17.30;99.90;;;;;;20831579;28;20045;-86
2023/07/12 03:19:39;;;;;;;10.68;3.35;;;17.40;99.90;;;;;;20820667;28;20045;-88
2023/07/12 03:30:00;;;;;;;14.38;5.28;;;17.50;99.90;;;;;;20829897;28;20122;-84
2023/07/12 03:40:21;;;;;;;9.75;5.15;;;17.40;99.90;;;;;;20821736;28;20041;-86
2023/07/12 03:50:46;;;;;;;9.35;4.60;;;17.30;99.90;;;;;;20826280;28;20037;-85
2023/07/12 04:01:10;;;;;;;8.43;4.10;;;17.30;99.90;;;;;;20834886;28;20033;-82
2023/07/12 04:11:33;;;;;;;9.45;3.88;;;17.30;96.90;;;;;;20862345;28;20056;-83
2023/07/12 04:21:54;;;;;;;12.65;5.18;;;17.20;97.40;;;;;;20907700;28;20559;-82
2023/07/12 04:32:16;;;;;;;11.32;4.95;;;17.10;97.40;;;;;;20767663;28;20457;-86
2023/07/12 04:42:37;;;;;;;13.70;5.55;;;17.10;96.20;;;;;;20849649;28;20099;-90
2023/07/12 04:52:58;;;;;;;12.43;6.05;;;17.30;98.80;;;;;;20851565;28;20427;-89
2023/07/12 05:03:21;;;;;;;11.65;7.32;;;17.20;91.20;;;;;;20850929;28;20084;-89
2023/07/12 05:13:43;;;;;;;13.05;6.65;;;17.30;82.70;;;;;;20853112;28;20034;-88
2023/07/12 05:24:05;;;;;;;13.90;6.47;;;17.40;64.10;;;;;;20847828;28;20052;-89
2023/07/12 05:34:26;;;;;;;15.27;7.07;;;17.50;52.30;;;;;;20809745;28;20042;-89
2023/07/12 05:44:47;;;;;;;12.60;5.95;;;17.50;80.70;;;;;;20821089;28;20473;-90
2023/07/12 05:55:11;;;;;;;15.95;6.85;;;17.50;65.60;;;;;;20837612;28;20107;-89
2023/07/12 06:05:32;;;;;;;12.63;6.50;;;17.70;48.40;;;;;;20841955;28;20111;-89
2023/07/12 06:15:54;;;;;;;18.08;7.70;;;17.70;35.80;;;;;;20843767;28;20457;-90
2023/07/12 06:26:15;;;;;;;8.15;6.88;;;17.80;43.50;;;;;;20834339;28;20060;-90
2023/07/12 06:36:37;;;;;;;14.32;6.38;;;17.90;47.90;;;;;;20760115;28;20052;-90
2023/07/12 06:46:58;;;;;;;12.90;7.50;;;18.00;50.10;;;;;;20748109;28;20034;-90
2023/07/12 06:57:20;;;;;;;11.80;5.03;;;18.30;41.10;;;;;;20780168;28;20041;-88
2023/07/12 07:07:43;;;;;;;9.70;4.68;;;18.60;19.50;;;;;;20808694;28;20033;-88
2023/07/12 07:18:04;;;;;;;9.85;3.85;;;18.90;9.30;;;;;;20790211;28;20041;-89
2023/07/12 07:28:26;;;;;;;10.73;3.60;;;19.10;1.00;;;;;;20742814;28;20049;-86
2023/07/12 07:38:47;;;;;;;10.00;2.92;;;19.20;1.00;;;;;;20728881;28;20038;-87
2023/07/12 07:49:09;;;;;;;8.90;3.30;;;19.40;1.00;;;;;;20692834;28;20072;-88
2023/07/12 07:59:31;;;;;;;8.27;3.13;;;19.70;1.00;;;;;;20728713;28;20050;-90
2023/07/12 08:09:53;;;;;;;11.15;3.45;;;19.90;1.00;;;;;;20735871;28;20109;-88
2023/07/12 08:20:14;;;;;;;9.32;2.63;;;19.80;1.00;;;;;;20733871;28;20052;-88
2023/07/12 08:30:36;;;;;;;11.65;3.08;;;19.80;1.00;;;;;;20819750;28;20517;-87
2023/07/12 08:40:58;;;;;;;11.13;2.63;;;18.80;1.00;;;;;;20816417;28;20049;-87
2023/07/12 08:51:28;;;;;;;10.10;2.97;;;18.40;36.50;;;;;;20832557;28;20452;-87
2023/07/12 09:01:53;;;;;;;8.13;2.28;;;18.80;1.00;;;;;;20816476;28;20392;-87
2023/07/12 09:12:30;;;;;;;10.73;2.30;;;19.10;1.00;;;;;;20813519;28;20045;-89
2023/07/12 09:22:56;;;;;;;7.60;2.30;;;19.30;1.00;;;;;;20838949;28;20037;-91
2023/07/12 09:33:23;;;;;;;8.25;2.10;;;19.70;1.00;;;;;;20845898;28;20045;-90
2023/07/12 09:43:56;;;;;;;5.63;1.80;;;20.00;1.00;;;;;;20806586;28;20045;-87
2023/07/12 09:54:32;;;;;;;6.38;2.17;;;20.20;1.00;;;;;;20834130;28;20045;-92
2023/07/12 10:04:59;;;;;;;5.55;1.50;;;20.50;1.00;;;;;;20788081;28;20049;-88
2023/07/12 10:15:20;;;;;;;6.65;2.30;;;21.00;1.00;;;;;;20767214;28;20068;-86
2023/07/12 10:25:46;;;;;;;4.72;1.73;;;21.30;1.00;;;;;;20784636;28;20456;-89
2023/07/12 10:36:15;;;;;;;6.20;2.03;;;21.20;1.00;;;;;;20786979;28;20131;-90
2023/07/12 10:46:45;;;;;;;6.85;2.42;;;21.50;1.00;;;;;;20796876;28;20440;-89
2023/07/12 10:57:22;;;;;;;7.40;2.15;;;21.20;1.00;;;;;;20770703;28;20049;-89
2023/07/12 11:07:44;;;;;;;4.03;1.58;;;21.30;1.00;;;;;;20772708;28;20029;-89
2023/07/12 11:18:09;;;;;;;6.40;2.45;;;21.40;1.00;;;;;;20795429;28;20041;-89
2023/07/12 11:28:44;;;;;;;4.25;2.30;;;21.50;1.00;;;;;;20758963;28;20108;-89
2023/07/12 11:39:20;;;;;;;6.72;1.80;;;22.00;1.00;;;;;;20759767;28;20052;-91
2023/07/12 11:49:44;;;;;;;9.02;2.25;;;21.90;1.00;;;;;;20758006;28;20041;-91
2023/07/12 12:00:25;;;;;;;6.95;2.20;;;22.00;1.00;;;;;;20760146;28;20045;-91
2023/07/12 12:10:48;;;;;;;7.15;2.00;;;21.80;1.00;;;;;;20765506;28;20107;-89
2023/07/12 12:21:17;;;;;;;6.40;2.05;;;21.70;1.00;;;;;;20770124;28;20045;-90
2023/07/12 12:31:52;;;;;;;4.63;1.80;;;21.90;1.00;;;;;;20858124;28;20060;-88
2023/07/12 12:42:22;;;;;;;5.97;1.98;;;22.10;1.00;;;;;;20835512;28;20126;-87
2023/07/12 12:52:44;;;;;;;4.00;2.30;;;22.70;1.00;;;;;;20810719;28;20037;-88
2023/07/12 13:03:06;;;;;;;2.42;0.90;;;23.30;1.00;;;;;;20834697;28;20041;-87
2023/07/12 13:13:27;;;;;;;3.78;1.65;;;23.60;1.00;;;;;;20834382;28;20044;-88
2023/07/12 13:23:50;;;;;;;1.42;0.60;;;23.80;1.00;;;;;;20814081;28;20036;-90
2023/07/12 13:34:11;;;;;;;3.03;0.80;;;24.00;1.00;;;;;;20825613;28;20072;-87
2023/07/12 13:44:32;;;;;;;3.40;0.80;;;24.00;1.00;;;;;;20837440;28;20512;-89
2023/07/12 13:54:54;;;;;;;3.00;1.00;;;23.60;1.00;;;;;;20850087;28;20533;-90
2023/07/12 14:05:15;;;;;;;2.75;0.80;;;23.50;1.00;;;;;;20822737;28;20041;-89
2023/07/12 14:15:36;;;;;;;2.90;0.80;;;23.60;1.00;;;;;;20824596;28;20040;-88
2023/07/12 14:25:58;;;;;;;3.70;0.70;;;23.20;1.00;;;;;;20820256;28;20964;-87
2023/07/12 14:36:22;;;;;;;2.33;0.70;;;23.20;1.00;;;;;;20831253;28;20053;-86
2023/07/12 14:46:44;;;;;;;2.55;1.00;;;23.40;1.00;;;;;;20812444;28;20045;-90
2023/07/12 14:57:11;;;;;;;3.92;0.73;;;23.70;1.00;;;;;;20811950;28;20041;-88
2023/07/12 15:07:40;;;;;;;2.43;1.17;;;23.40;1.00;;;;;;20813888;28;20044;-87
2023/07/12 15:18:23;;;;;;;2.88;0.85;;;23.00;1.00;;;;;;20831929;28;20033;-87
2023/07/12 15:28:46;;;;;;;2.35;0.93;;;23.20;1.00;;;;;;20850272;28;20057;-87
2023/07/12 15:39:08;;;;;;;4.82;1.00;;;22.80;1.00;;;;;;20831393;28;20542;-89
2023/07/12 15:49:35;;;;;;;3.35;0.90;;;22.70;1.00;;;;;;20831613;28;20503;-87
2023/07/12 15:59:56;;;;;;;3.90;1.17;;;22.70;1.00;;;;;;20830407;28;20116;-89
2023/07/12 16:10:18;;;;;;;2.45;0.70;;;22.50;1.00;;;;;;20820969;28;20049;-86
2023/07/12 16:20:39;;;;;;;3.88;1.17;;;22.40;1.00;;;;;;20874930;28;20056;-89
2023/07/12 16:31:02;;;;;;;4.03;1.08;;;22.50;1.00;;;;;;20876708;28;20206;-89
2023/07/12 16:41:26;;;;;;;5.28;1.33;;;22.40;1.00;;;;;;20889399;28;20103;-91
2023/07/12 16:52:04;;;;;;;6.18;1.55;;;22.30;1.00;;;;;;20828742;28;20041;-87
2023/07/12 17:02:28;;;;;;;3.13;0.70;;;22.20;1.00;;;;;;20827756;28;20444;-87
2023/07/12 17:13:01;;;;;;;5.13;0.80;;;21.90;1.00;;;;;;20888417;28;20317;-90
2023/07/12 17:23:26;;;;;;;3.95;1.60;;;21.80;1.00;;;;;;20920451;28;20052;-86
2023/07/12 17:33:48;;;;;;;4.80;1.10;;;21.70;1.00;;;;;;20909554;28;20484;-85
2023/07/12 17:44:17;;;;;;;4.65;1.15;;;21.60;1.00;;;;;;20871103;28;20499;-78
2023/07/12 17:54:39;;;;;;;5.80;1.30;;;21.40;1.00;;;;;;20893691;28;20040;-83
2023/07/12 18:05:02;;;;;;;3.72;0.80;;;21.20;1.00;;;;;;20862244;28;20171;-85
2023/07/12 18:15:29;;;;;;;3.97;0.70;;;21.10;1.00;;;;;;20874252;28;20048;-84
2023/07/12 18:25:52;;;;;;;3.03;0.50;;;21.10;1.00;;;;;;20886215;28;20045;-84
2023/07/12 18:36:19;;;;;;;3.35;0.80;;;20.90;1.00;;;;;;20930039;28;20049;-83
2023/07/12 18:46:41;;;;;;;9.07;2.07;;;20.80;1.00;;;;;;20963103;28;20140;-83
2023/07/12 18:57:03;;;;;;;6.65;1.30;;;20.70;1.00;;;;;;20899960;28;20040;-85
2023/07/12 19:07:28;;;;;;;6.60;1.20;;;20.50;1.00;;;;;;20899192;28;20040;-84
2023/07/12 19:17:49;;;;;;;6.82;1.27;;;20.20;1.00;;;;;;20841670;28;20147;-85
2023/07/12 19:28:14;;;;;;;5.63;0.98;;;20.00;1.00;;;;;;20902176;28;20041;-86
2023/07/12 19:38:36;;;;;;;4.50;1.15;;;19.90;1.00;;;;;;20916854;28;20044;-86
2023/07/12 19:49:06;;;;;;;6.72;1.30;;;19.60;1.00;;;;;;20929545;28;20036;-90
2023/07/12 19:59:28;;;;;;;8.85;1.58;;;19.60;1.00;;;;;;20987166;28;20013;-84
2023/07/12 20:09:50;;;;;;;9.88;1.92;;;19.60;1.00;;;;;;20976766;28;20045;-83
2023/07/12 20:20:19;;;;;;;6.82;1.63;;;19.20;1.00;;;;;;20931754;28;20451;-90
2023/07/12 20:30:45;;;;;;;6.35;1.42;;;19.10;1.00;;;;;;20922215;28;20036;-89
2023/07/12 20:41:07;;;;;;;8.80;1.48;;;19.10;1.00;;;;;;20912663;28;20040;-90
2023/07/12 20:51:29;;;;;;;5.72;1.45;;;18.90;1.00;;;;;;20892324;28;20053;-88
2023/07/12 21:01:51;;;;;;;6.72;1.50;;;18.70;1.00;;;;;;20815482;28;20428;-86
2023/07/12 21:12:13;;;;;;;9.52;1.45;;;18.70;1.00;;;;;;20818123;28;20481;-86
2023/07/12 21:22:37;;;;;;;10.95;2.25;;;18.80;1.00;;;;;;20871444;28;20041;-86
2023/07/12 21:32:59;;;;;;;8.57;1.40;;;18.90;1.00;;;;;;20911042;28;20033;-86
2023/07/12 21:43:20;;;;;;;10.48;2.50;;;18.90;1.00;;;;;;20909097;28;20448;-86
2023/07/12 21:53:42;;;;;;;10.35;1.75;;;18.80;1.00;;;;;;20910490;28;20044;-86
2023/07/12 22:04:04;;;;;;;10.02;1.65;;;18.80;1.00;;;;;;20897820;28;20026;-90
2023/07/12 22:14:25;;;;;;;8.38;1.98;;;18.70;1.00;;;;;;20876605;28;20377;-90
2023/07/12 22:24:47;;;;;;;9.05;1.58;;;18.70;1.00;;;;;;20900431;28;20056;-90
2023/07/12 22:35:10;;;;;;;9.90;2.60;;;18.60;1.00;;;;;;20907776;28;20049;-91
2023/07/12 22:45:31;;;;;;;9.77;1.90;;;18.60;1.00;;;;;;20908024;28;20033;-89
2023/07/12 22:56:02;;;;;;;8.80;2.10;;;18.70;1.00;;;;;;20906996;28;20037;-90
2023/07/12 23:06:23;;;;;;;10.10;2.15;;;18.60;1.00;;;;;;20898007;28;20435;-86
2023/07/12 23:16:45;;;;;;;12.30;2.30;;;18.60;1.00;;;;;;20902466;28;20032;-90
2023/07/12 23:27:07;;;;;;;7.45;2.13;;;18.60;1.00;;;;;;20903076;28;20053;-91
2023/07/12 23:37:32;;;;;;;14.90;2.42;;;18.30;1.00;;;;;;20902945;28;20025;-91
2023/07/12 23:47:54;;;;;;;7.97;2.25;;;18.20;1.00;;;;;;20903655;28;20100;-90
2023/07/12 23:58:15;;;;;;;15.10;2.90;;;18.20;1.00;;;;;;20901712;28;20036;-92
